sensor_id;sensor_type;location;lat;lon;timestamp;pressure;altitude;pressure_sealevel;temperature;humidity
77823;BME280;67013;49.730;17.292;2024-01-11T00:02:04;99681.23;;;-5.91;61.14
77823;BME280;67013;49.730;17.292;2024-01-11T00:04:34;99681.05;;;-5.96;61.30
77823;BME280;67013;49.730;17.292;2024-01-11T00:07:04;99679.15;;;-5.97;61.48
77823;BME280;67013;49.730;17.292;2024-01-11T00:09:33;99680.83;;;-5.98;61.55
77823;BME280;67013;49.730;17.292;2024-01-11T00:12:03;99679.64;;;-5.99;61.69
77823;BME280;67013;49.730;17.292;2024-01-11T00:14:32;99682.82;;;-6.01;61.78
77823;BME280;67013;49.730;17.292;2024-01-11T00:17:02;99680.79;;;-6.00;61.85
77823;BME280;67013;49.730;17.292;2024-01-11T00:19:31;99681.12;;;-6.01;61.84
77823;BME280;67013;49.730;17.292;2024-01-11T00:22:01;99676.08;;;-5.99;61.80
77823;BME280;67013;49.730;17.292;2024-01-11T00:24:31;99668.98;;;-5.97;61.83
77823;BME280;67013;49.730;17.292;2024-01-11T00:27:00;99672.94;;;-5.93;61.86
77823;BME280;67013;49.730;17.292;2024-01-11T00:29:30;99669.61;;;-5.87;61.69
77823;BME280;67013;49.730;17.292;2024-01-11T00:31:59;99668.34;;;-5.80;61.51
77823;BME280;67013;49.730;17.292;2024-01-11T00:34:28;99663.16;;;-5.74;61.45
77823;BME280;67013;49.730;17.292;2024-01-11T00:36:58;99658.66;;;-5.69;61.29
77823;BME280;67013;49.730;17.292;2024-01-11T00:39:27;99659.73;;;-5.64;61.11
77823;BME280;67013;49.730;17.292;2024-01-11T00:41:58;99651.28;;;-5.61;61.09
77823;BME280;67013;49.730;17.292;2024-01-11T00:44:27;99651.94;;;-5.62;61.01
77823;BME280;67013;49.730;17.292;2024-01-11T00:46:57;99650.21;;;-5.67;61.10
77823;BME280;67013;49.730;17.292;2024-01-11T00:49:26;99648.11;;;-5.72;61.37
77823;BME280;67013;49.730;17.292;2024-01-11T00:51:56;99653.29;;;-5.77;61.43
77823;BME280;67013;49.730;17.292;2024-01-11T00:54:25;99654.96;;;-5.80;61.75
77823;BME280;67013;49.730;17.292;2024-01-11T00:56:55;99653.05;;;-5.83;61.74
77823;BME280;67013;49.730;17.292;2024-01-11T00:59:24;99653.86;;;-5.86;61.39
77823;BME280;67013;49.730;17.292;2024-01-11T01:01:54;99649.58;;;-5.92;61.45
77823;BME280;67013;49.730;17.292;2024-01-11T01:04:23;99643.23;;;-5.98;61.44
77823;BME280;67013;49.730;17.292;2024-01-11T01:06:52;99640.92;;;-6.06;61.80
77823;BME280;67013;49.730;17.292;2024-01-11T01:09:22;99637.25;;;-6.14;61.76
77823;BME280;67013;49.730;17.292;2024-01-11T01:11:51;99640.70;;;-6.21;61.85
77823;BME280;67013;49.730;17.292;2024-01-11T01:14:21;99641.02;;;-6.23;62.07
77823;BME280;67013;49.730;17.292;2024-01-11T01:16:51;99639.34;;;-6.23;62.15
77823;BME280;67013;49.730;17.292;2024-01-11T01:19:20;99630.89;;;-6.20;62.12
77823;BME280;67013;49.730;17.292;2024-01-11T01:21:49;99632.28;;;-6.18;62.07
77823;BME280;67013;49.730;17.292;2024-01-11T01:24:19;99635.73;;;-6.15;62.10
77823;BME280;67013;49.730;17.292;2024-01-11T01:26:48;99635.45;;;-6.11;62.15
77823;BME280;67013;49.730;17.292;2024-01-11T01:29:18;99631.42;;;-6.06;62.08
77823;BME280;67013;49.730;17.292;2024-01-11T01:31:48;99627.60;;;-6.02;61.93
77823;BME280;67013;49.730;17.292;2024-01-11T01:34:17;99622.58;;;-5.97;61.99
77823;BME280;67013;49.730;17.292;2024-01-11T01:36:47;99621.11;;;-5.94;61.81
77823;BME280;67013;49.730;17.292;2024-01-11T01:39:16;99620.63;;;-5.90;61.82
77823;BME280;67013;49.730;17.292;2024-01-11T01:41:46;99615.56;;;-5.88;61.64
77823;BME280;67013;49.730;17.292;2024-01-11T01:44:15;99610.89;;;-5.82;61.59
77823;BME280;67013;49.730;17.292;2024-01-11T01:46:45;99607.23;;;-5.77;61.66
77823;BME280;67013;49.730;17.292;2024-01-11T01:49:15;99601.34;;;-5.73;61.46
77823;BME280;67013;49.730;17.292;2024-01-11T01:51:46;99597.48;;;-5.69;61.19
77823;BME280;67013;49.730;17.292;2024-01-11T01:54:16;99603.61;;;-5.67;61.18
77823;BME280;67013;49.730;17.292;2024-01-11T01:56:46;99606.30;;;-5.69;61.08
77823;BME280;67013;49.730;17.292;2024-01-11T01:59:17;99605.87;;;-5.76;61.18
77823;BME280;67013;49.730;17.292;2024-01-11T02:01:47;99605.13;;;-5.82;61.26
77823;BME280;67013;49.730;17.292;2024-01-11T02:04:17;99613.19;;;-5.88;61.46
77823;BME280;67013;49.730;17.292;2024-01-11T02:06:48;99611.60;;;-5.96;61.49
77823;BME280;67013;49.730;17.292;2024-01-11T02:09:18;99604.06;;;-6.02;61.59
77823;BME280;67013;49.730;17.292;2024-01-11T02:11:49;99603.48;;;-6.06;61.74
77823;BME280;67013;49.730;17.292;2024-01-11T02:14:20;99599.89;;;-6.11;61.89
77823;BME280;67013;49.730;17.292;2024-01-11T02:16:50;99598.45;;;-6.16;62.11
77823;BME280;67013;49.730;17.292;2024-01-11T02:19:20;99591.95;;;-6.21;61.98
77823;BME280;67013;49.730;17.292;2024-01-11T02:21:51;99584.98;;;-6.24;62.25
77823;BME280;67013;49.730;17.292;2024-01-11T02:24:23;99574.84;;;-6.23;62.21
77823;BME280;67013;49.730;17.292;2024-01-11T02:27:03;99574.19;;;-6.20;62.37
77823;BME280;67013;49.730;17.292;2024-01-11T02:29:33;99570.15;;;-6.18;62.24
77823;BME280;67013;49.730;17.292;2024-01-11T02:32:04;99565.63;;;-6.16;62.36
77823;BME280;67013;49.730;17.292;2024-01-11T02:34:34;99566.86;;;-6.13;62.28
77823;BME280;67013;49.730;17.292;2024-01-11T02:37:05;99571.98;;;-6.10;62.04
77823;BME280;67013;49.730;17.292;2024-01-11T02:39:35;99572.48;;;-6.08;62.16
77823;BME280;67013;49.730;17.292;2024-01-11T02:42:05;99569.83;;;-6.04;61.91
77823;BME280;67013;49.730;17.292;2024-01-11T02:44:35;99571.75;;;-6.00;61.84
77823;BME280;67013;49.730;17.292;2024-01-11T02:47:05;99576.34;;;-5.98;61.94
77823;BME280;67013;49.730;17.292;2024-01-11T02:49:34;99577.39;;;-5.96;61.72
77823;BME280;67013;49.730;17.292;2024-01-11T02:52:05;99572.83;;;-5.96;61.62
77823;BME280;67013;49.730;17.292;2024-01-11T02:54:34;99565.04;;;-5.94;61.52
77823;BME280;67013;49.730;17.292;2024-01-11T02:57:05;99563.19;;;-5.94;61.58
77823;BME280;67013;49.730;17.292;2024-01-11T02:59:35;99561.15;;;-5.93;61.67
77823;BME280;67013;49.730;17.292;2024-01-11T03:02:05;99561.66;;;-5.94;61.55
77823;BME280;67013;49.730;17.292;2024-01-11T03:04:34;99562.69;;;-5.95;61.79
77823;BME280;67013;49.730;17.292;2024-01-11T03:07:04;99561.31;;;-5.95;61.75
77823;BME280;67013;49.730;17.292;2024-01-11T03:09:34;99559.30;;;-5.93;61.85
77823;BME280;67013;49.730;17.292;2024-01-11T03:12:04;99563.40;;;-5.89;61.69
77823;BME280;67013;49.730;17.292;2024-01-11T03:14:35;99562.74;;;-5.86;61.73
77823;BME280;67013;49.730;17.292;2024-01-11T03:17:05;99568.23;;;-5.81;61.68
77823;BME280;67013;49.730;17.292;2024-01-11T03:19:34;99561.48;;;-5.76;61.73
77823;BME280;67013;49.730;17.292;2024-01-11T03:22:08;99550.04;;;-5.71;61.54
77823;BME280;67013;49.730;17.292;2024-01-11T03:24:40;99549.41;;;-5.66;61.59
77823;BME280;67013;49.730;17.292;2024-01-11T03:27:09;99551.64;;;-5.62;61.15
77823;BME280;67013;49.730;17.292;2024-01-11T03:29:39;99545.71;;;-5.61;61.10
77823;BME280;67013;49.730;17.292;2024-01-11T03:32:09;99539.77;;;-5.63;61.19
77823;BME280;67013;49.730;17.292;2024-01-11T03:34:41;99540.11;;;-5.63;61.02
77823;BME280;67013;49.730;17.292;2024-01-11T03:37:10;99536.89;;;-5.64;61.11
77823;BME280;67013;49.730;17.292;2024-01-11T03:39:39;99535.54;;;-5.64;60.96
77823;BME280;67013;49.730;17.292;2024-01-11T03:42:09;99530.95;;;-5.63;60.88
77823;BME280;67013;49.730;17.292;2024-01-11T03:44:39;99521.33;;;-5.60;61.00
77823;BME280;67013;49.730;17.292;2024-01-11T03:47:08;99516.27;;;-5.58;60.63
77823;BME280;67013;49.730;17.292;2024-01-11T03:49:38;99517.33;;;-5.55;60.64
77823;BME280;67013;49.730;17.292;2024-01-11T03:52:08;99521.91;;;-5.54;60.50
77823;BME280;67013;49.730;17.292;2024-01-11T03:54:38;99526.64;;;-5.56;60.44
77823;BME280;67013;49.730;17.292;2024-01-11T03:57:07;99534.20;;;-5.60;60.40
77823;BME280;67013;49.730;17.292;2024-01-11T03:59:36;99540.59;;;-5.66;60.56
77823;BME280;67013;49.730;17.292;2024-01-11T04:02:06;99543.92;;;-5.72;60.68
77823;BME280;67013;49.730;17.292;2024-01-11T04:04:36;99543.02;;;-5.78;60.55
77823;BME280;67013;49.730;17.292;2024-01-11T04:07:05;99541.40;;;-5.85;60.53
77823;BME280;67013;49.730;17.292;2024-01-11T04:09:36;99538.81;;;-5.93;60.96
77823;BME280;67013;49.730;17.292;2024-01-11T04:12:07;99529.91;;;-6.01;60.91
77823;BME280;67013;49.730;17.292;2024-01-11T04:14:40;99532.70;;;-6.08;61.09
77823;BME280;67013;49.730;17.292;2024-01-11T04:17:10;99532.27;;;-6.16;61.22
77823;BME280;67013;49.730;17.292;2024-01-11T04:19:40;99539.64;;;-6.22;61.35
77823;BME280;67013;49.730;17.292;2024-01-11T04:22:10;99541.94;;;-6.28;61.53
77823;BME280;67013;49.730;17.292;2024-01-11T04:24:40;99540.04;;;-6.31;61.50
77823;BME280;67013;49.730;17.292;2024-01-11T04:27:10;99533.27;;;-6.30;61.69
77823;BME280;67013;49.730;17.292;2024-01-11T04:29:39;99529.56;;;-6.29;61.74
77823;BME280;67013;49.730;17.292;2024-01-11T04:32:09;99526.54;;;-6.28;61.76
77823;BME280;67013;49.730;17.292;2024-01-11T04:34:38;99525.71;;;-6.26;61.87
77823;BME280;67013;49.730;17.292;2024-01-11T04:37:08;99520.13;;;-6.27;61.93
77823;BME280;67013;49.730;17.292;2024-01-11T04:39:38;99510.47;;;-6.27;61.88
77823;BME280;67013;49.730;17.292;2024-01-11T04:42:07;99513.23;;;-6.24;61.96
77823;BME280;67013;49.730;17.292;2024-01-11T04:44:37;99518.81;;;-6.23;61.70
77823;BME280;67013;49.730;17.292;2024-01-11T04:47:06;99522.19;;;-6.24;61.99
77823;BME280;67013;49.730;17.292;2024-01-11T04:49:36;99521.66;;;-6.26;61.75
77823;BME280;67013;49.730;17.292;2024-01-11T04:52:06;99517.05;;;-6.28;61.81
77823;BME280;67013;49.730;17.292;2024-01-11T04:54:36;99511.61;;;-6.31;61.89
77823;BME280;67013;49.730;17.292;2024-01-11T04:57:06;99509.38;;;-6.33;61.97
77823;BME280;67013;49.730;17.292;2024-01-11T04:59:35;99510.53;;;-6.34;61.84
77823;BME280;67013;49.730;17.292;2024-01-11T05:02:05;99505.60;;;-6.36;62.09
77823;BME280;67013;49.730;17.292;2024-01-11T05:04:34;99498.50;;;-6.35;62.16
77823;BME280;67013;49.730;17.292;2024-01-11T05:07:04;99500.91;;;-6.33;62.03
77823;BME280;67013;49.730;17.292;2024-01-11T05:09:34;99504.84;;;-6.30;62.34
77823;BME280;67013;49.730;17.292;2024-01-11T05:12:04;99505.56;;;-6.27;62.18
77823;BME280;67013;49.730;17.292;2024-01-11T05:14:34;99513.05;;;-6.22;62.00
77823;BME280;67013;49.730;17.292;2024-01-11T05:17:04;99514.09;;;-6.21;62.13
77823;BME280;67013;49.730;17.292;2024-01-11T05:19:33;99518.86;;;-6.18;61.98
77823;BME280;67013;49.730;17.292;2024-01-11T05:22:03;99524.45;;;-6.18;61.96
77823;BME280;67013;49.730;17.292;2024-01-11T05:24:33;99523.77;;;-6.19;61.97
77823;BME280;67013;49.730;17.292;2024-01-11T05:27:03;99526.15;;;-6.18;61.90
77823;BME280;67013;49.730;17.292;2024-01-11T05:29:32;99525.64;;;-6.18;61.88
77823;BME280;67013;49.730;17.292;2024-01-11T05:32:02;99526.13;;;-6.20;61.83
77823;BME280;67013;49.730;17.292;2024-01-11T05:34:31;99524.77;;;-6.19;61.90
77823;BME280;67013;49.730;17.292;2024-01-11T05:37:01;99528.85;;;-6.18;61.81
77823;BME280;67013;49.730;17.292;2024-01-11T05:39:30;99527.86;;;-6.16;61.78
77823;BME280;67013;49.730;17.292;2024-01-11T05:42:00;99523.48;;;-6.15;61.90
77823;BME280;67013;49.730;17.292;2024-01-11T05:44:29;99516.90;;;-6.13;61.82
77823;BME280;67013;49.730;17.292;2024-01-11T05:46:59;99507.96;;;-6.11;61.77
77823;BME280;67013;49.730;17.292;2024-01-11T05:49:28;99503.74;;;-6.08;61.87
77823;BME280;67013;49.730;17.292;2024-01-11T05:51:58;99500.35;;;-6.07;61.72
77823;BME280;67013;49.730;17.292;2024-01-11T05:54:28;99506.14;;;-6.06;61.77
77823;BME280;67013;49.730;17.292;2024-01-11T05:56:57;99503.74;;;-6.08;61.60
77823;BME280;67013;49.730;17.292;2024-01-11T05:59:27;99500.52;;;-6.09;61.70
77823;BME280;67013;49.730;17.292;2024-01-11T06:01:57;99492.75;;;-6.08;61.76
77823;BME280;67013;49.730;17.292;2024-01-11T06:04:28;99493.27;;;-6.06;61.81
77823;BME280;67013;49.730;17.292;2024-01-11T06:06:58;99494.28;;;-6.06;61.59
77823;BME280;67013;49.730;17.292;2024-01-11T06:09:27;99491.55;;;-6.07;61.84
77823;BME280;67013;49.730;17.292;2024-01-11T06:11:57;99499.19;;;-6.06;61.88
77823;BME280;67013;49.730;17.292;2024-01-11T06:14:27;99506.67;;;-6.04;61.95
77823;BME280;67013;49.730;17.292;2024-01-11T06:16:57;99502.61;;;-6.04;61.74
77823;BME280;67013;49.730;17.292;2024-01-11T06:19:26;99493.12;;;-6.04;61.46
77823;BME280;67013;49.730;17.292;2024-01-11T06:21:56;99487.35;;;-6.05;61.26
77823;BME280;67013;49.730;17.292;2024-01-11T06:24:25;99487.86;;;-6.06;61.18
77823;BME280;67013;49.730;17.292;2024-01-11T06:26:54;99488.20;;;-6.06;61.34
77823;BME280;67013;49.730;17.292;2024-01-11T06:29:24;99500.87;;;-6.08;61.49
77823;BME280;67013;49.730;17.292;2024-01-11T06:31:53;99507.11;;;-6.11;61.58
77823;BME280;67013;49.730;17.292;2024-01-11T06:34:23;99502.15;;;-6.15;61.49
77823;BME280;67013;49.730;17.292;2024-01-11T06:36:53;99498.24;;;-6.16;61.70
77823;BME280;67013;49.730;17.292;2024-01-11T06:39:22;99498.60;;;-6.15;61.78
77823;BME280;67013;49.730;17.292;2024-01-11T06:41:52;99495.20;;;-6.16;61.79
77823;BME280;67013;49.730;17.292;2024-01-11T06:44:21;99484.86;;;-6.17;62.03
77823;BME280;67013;49.730;17.292;2024-01-11T06:46:51;99483.18;;;-6.15;61.79
77823;BME280;67013;49.730;17.292;2024-01-11T06:49:20;99484.06;;;-6.13;61.67
77823;BME280;67013;49.730;17.292;2024-01-11T06:51:50;99483.23;;;-6.12;61.63
77823;BME280;67013;49.730;17.292;2024-01-11T06:54:19;99471.73;;;-6.11;61.74
77823;BME280;67013;49.730;17.292;2024-01-11T06:56:49;99457.19;;;-6.08;61.74
77823;BME280;67013;49.730;17.292;2024-01-11T06:59:18;99449.77;;;-6.05;61.66
77823;BME280;67013;49.730;17.292;2024-01-11T07:01:48;99445.73;;;-6.03;61.62
77823;BME280;67013;49.730;17.292;2024-01-11T07:04:17;99455.01;;;-6.05;61.72
77823;BME280;67013;49.730;17.292;2024-01-11T07:06:47;99459.13;;;-6.16;61.93
77823;BME280;67013;49.730;17.292;2024-01-11T07:09:16;99465.48;;;-6.24;62.17
77823;BME280;67013;49.730;17.292;2024-01-11T07:11:46;99467.79;;;-6.30;62.27
77823;BME280;67013;49.730;17.292;2024-01-11T07:14:16;99465.86;;;-6.33;62.67
77823;BME280;67013;49.730;17.292;2024-01-11T07:16:45;99467.20;;;-6.35;62.68
77823;BME280;67013;49.730;17.292;2024-01-11T07:19:15;99459.22;;;-6.37;62.82
77823;BME280;67013;49.730;17.292;2024-01-11T07:21:44;99462.27;;;-6.37;63.12
77823;BME280;67013;49.730;17.292;2024-01-11T07:24:14;99459.50;;;-6.29;63.09
77823;BME280;67013;49.730;17.292;2024-01-11T07:26:43;99452.67;;;-6.18;63.07
77823;BME280;67013;49.730;17.292;2024-01-11T07:29:13;99458.58;;;-6.05;63.23
77823;BME280;67013;49.730;17.292;2024-01-11T07:31:43;99462.10;;;-5.91;63.33
77823;BME280;67013;49.730;17.292;2024-01-11T07:34:12;99469.35;;;-5.75;63.38
77823;BME280;67013;49.730;17.292;2024-01-11T07:36:42;99471.37;;;-5.58;63.31
77823;BME280;67013;49.730;17.292;2024-01-11T07:39:11;99465.42;;;-5.39;63.18
77823;BME280;67013;49.730;17.292;2024-01-11T07:41:41;99467.30;;;-5.17;63.36
77823;BME280;67013;49.730;17.292;2024-01-11T07:44:10;99461.86;;;-4.93;63.10
77823;BME280;67013;49.730;17.292;2024-01-11T07:46:39;99448.77;;;-4.71;62.82
77823;BME280;67013;49.730;17.292;2024-01-11T07:49:09;99440.39;;;-4.49;62.42
77823;BME280;67013;49.730;17.292;2024-01-11T07:51:39;99440.12;;;-4.29;61.67
77823;BME280;67013;49.730;17.292;2024-01-11T07:54:08;99440.52;;;-4.11;61.25
77823;BME280;67013;49.730;17.292;2024-01-11T07:56:38;99431.55;;;-3.89;60.96
77823;BME280;67013;49.730;17.292;2024-01-11T07:59:08;99432.77;;;-3.64;60.69
77823;BME280;67013;49.730;17.292;2024-01-11T08:01:41;99426.50;;;-3.36;60.59
77823;BME280;67013;49.730;17.292;2024-01-11T08:04:11;99420.67;;;-3.06;59.90
77823;BME280;67013;49.730;17.292;2024-01-11T08:06:40;99419.23;;;-2.75;59.64
77823;BME280;67013;49.730;17.292;2024-01-11T08:09:10;99419.29;;;-2.40;58.90
77823;BME280;67013;49.730;17.292;2024-01-11T08:11:41;99423.55;;;-2.07;58.57
77823;BME280;67013;49.730;17.292;2024-01-11T08:14:11;99425.73;;;-1.74;57.81
77823;BME280;67013;49.730;17.292;2024-01-11T08:16:40;99415.64;;;-1.46;56.94
77823;BME280;67013;49.730;17.292;2024-01-11T08:19:09;99414.41;;;-1.23;56.06
77823;BME280;67013;49.730;17.292;2024-01-11T08:21:42;99408.41;;;-1.01;55.28
77823;BME280;67013;49.730;17.292;2024-01-11T08:24:11;99400.70;;;-0.83;54.72
77823;BME280;67013;49.730;17.292;2024-01-11T08:26:41;99393.33;;;-0.65;54.50
77823;BME280;67013;49.730;17.292;2024-01-11T08:29:11;99382.71;;;-0.48;54.07
77823;BME280;67013;49.730;17.292;2024-01-11T08:31:42;99373.27;;;-0.31;53.45
77823;BME280;67013;49.730;17.292;2024-01-11T08:34:11;99390.80;;;-0.13;53.59
77823;BME280;67013;49.730;17.292;2024-01-11T08:36:41;99405.92;;;0.06;52.97
77823;BME280;67013;49.730;17.292;2024-01-11T08:39:11;99413.23;;;0.20;52.38
77823;BME280;67013;49.730;17.292;2024-01-11T08:41:41;99402.57;;;0.35;52.09
77823;BME280;67013;49.730;17.292;2024-01-11T08:44:10;99385.13;;;0.55;52.12
77823;BME280;67013;49.730;17.292;2024-01-11T08:46:40;99379.05;;;0.80;51.71
77823;BME280;67013;49.730;17.292;2024-01-11T08:49:12;99380.23;;;1.10;51.09
77823;BME280;67013;49.730;17.292;2024-01-11T08:51:41;99375.17;;;1.41;50.65
77823;BME280;67013;49.730;17.292;2024-01-11T08:54:10;99376.39;;;1.73;50.14
77823;BME280;67013;49.730;17.292;2024-01-11T08:56:40;99378.19;;;2.00;49.35
77823;BME280;67013;49.730;17.292;2024-01-11T08:59:10;99374.67;;;2.27;48.42
77823;BME280;67013;49.730;17.292;2024-01-11T09:01:40;99376.51;;;2.50;48.04
77823;BME280;67013;49.730;17.292;2024-01-11T09:04:09;99371.95;;;2.74;47.89
77823;BME280;67013;49.730;17.292;2024-01-11T09:06:38;99366.20;;;2.97;47.88
77823;BME280;67013;49.730;17.292;2024-01-11T09:09:08;99367.49;;;3.19;47.23
77823;BME280;67013;49.730;17.292;2024-01-11T09:11:38;99366.90;;;3.40;46.63
77823;BME280;67013;49.730;17.292;2024-01-11T09:14:09;99369.97;;;3.54;46.61
77823;BME280;67013;49.730;17.292;2024-01-11T09:16:40;99365.83;;;3.61;45.81
77823;BME280;67013;49.730;17.292;2024-01-11T09:19:10;99369.67;;;3.64;45.97
77823;BME280;67013;49.730;17.292;2024-01-11T09:21:39;99363.06;;;3.60;45.19
77823;BME280;67013;49.730;17.292;2024-01-11T09:24:10;99359.34;;;3.59;44.84
77823;BME280;67013;49.730;17.292;2024-01-11T09:26:39;99369.93;;;3.49;44.28
77823;BME280;67013;49.730;17.292;2024-01-11T09:29:09;99369.59;;;3.37;44.72
77823;BME280;67013;49.730;17.292;2024-01-11T09:31:38;99362.58;;;3.29;44.71
77823;BME280;67013;49.730;17.292;2024-01-11T09:34:08;99357.85;;;3.20;44.87
77823;BME280;67013;49.730;17.292;2024-01-11T09:36:37;99349.48;;;3.12;44.89
77823;BME280;67013;49.730;17.292;2024-01-11T09:39:07;99350.23;;;3.04;44.94
77823;BME280;67013;49.730;17.292;2024-01-11T09:41:38;99348.08;;;3.00;44.85
77823;BME280;67013;49.730;17.292;2024-01-11T09:44:11;99340.11;;;3.03;45.20
77823;BME280;67013;49.730;17.292;2024-01-11T09:46:41;99344.27;;;3.08;45.02
77823;BME280;67013;49.730;17.292;2024-01-11T09:49:11;99351.25;;;3.04;45.01
77823;BME280;67013;49.730;17.292;2024-01-11T09:51:43;99346.11;;;2.97;45.05
77823;BME280;67013;49.730;17.292;2024-01-11T09:54:16;99346.99;;;2.90;45.72
77823;BME280;67013;49.730;17.292;2024-01-11T09:56:49;99337.35;;;2.78;45.74
77823;BME280;67013;49.730;17.292;2024-01-11T09:59:21;99331.27;;;2.67;45.60
77823;BME280;67013;49.730;17.292;2024-01-11T10:01:52;99332.30;;;2.54;45.44
77823;BME280;67013;49.730;17.292;2024-01-11T10:04:22;99338.48;;;2.40;45.50
77823;BME280;67013;49.730;17.292;2024-01-11T10:06:53;99341.56;;;2.26;45.44
77823;BME280;67013;49.730;17.292;2024-01-11T10:09:23;99332.75;;;2.14;45.92
77823;BME280;67013;49.730;17.292;2024-01-11T10:11:52;99326.92;;;2.07;46.44
77823;BME280;67013;49.730;17.292;2024-01-11T10:14:23;99321.77;;;2.00;46.62
77823;BME280;67013;49.730;17.292;2024-01-11T10:16:52;99326.08;;;1.92;46.70
77823;BME280;67013;49.730;17.292;2024-01-11T10:19:23;99329.41;;;1.88;47.44
77823;BME280;67013;49.730;17.292;2024-01-11T10:21:52;99331.98;;;1.88;47.57
77823;BME280;67013;49.730;17.292;2024-01-11T10:24:22;99333.08;;;1.86;47.29
77823;BME280;67013;49.730;17.292;2024-01-11T10:26:57;99345.27;;;1.77;47.16
77823;BME280;67013;49.730;17.292;2024-01-11T10:29:32;99341.95;;;1.72;47.36
77823;BME280;67013;49.730;17.292;2024-01-11T10:32:02;99337.12;;;1.66;48.04
77823;BME280;67013;49.730;17.292;2024-01-11T10:34:32;99331.58;;;1.61;48.04
77823;BME280;67013;49.730;17.292;2024-01-11T10:37:01;99330.06;;;1.59;47.96
77823;BME280;67013;49.730;17.292;2024-01-11T10:39:33;99324.46;;;1.57;47.78
77823;BME280;67013;49.730;17.292;2024-01-11T10:42:06;99309.96;;;1.52;47.95
77823;BME280;67013;49.730;17.292;2024-01-11T10:44:40;99307.84;;;1.48;48.04
77823;BME280;67013;49.730;17.292;2024-01-11T10:47:18;99315.48;;;1.43;48.39
77823;BME280;67013;49.730;17.292;2024-01-11T10:49:51;99307.55;;;1.37;48.66
77823;BME280;67013;49.730;17.292;2024-01-11T10:52:25;99303.88;;;1.33;48.56
77823;BME280;67013;49.730;17.292;2024-01-11T10:54:58;99301.27;;;1.27;48.90
77823;BME280;67013;49.730;17.292;2024-01-11T10:57:29;99299.48;;;1.21;49.06
77823;BME280;67013;49.730;17.292;2024-01-11T11:00:00;99293.98;;;1.15;49.33
77823;BME280;67013;49.730;17.292;2024-01-11T11:02:36;99292.39;;;1.08;49.61
77823;BME280;67013;49.730;17.292;2024-01-11T11:05:07;99284.25;;;1.04;49.98
77823;BME280;67013;49.730;17.292;2024-01-11T11:07:36;99281.77;;;1.01;49.81
77823;BME280;67013;49.730;17.292;2024-01-11T11:10:08;99280.98;;;0.96;49.90
77823;BME280;67013;49.730;17.292;2024-01-11T11:12:38;99288.58;;;0.93;50.17
77823;BME280;67013;49.730;17.292;2024-01-11T11:15:10;99281.61;;;0.90;50.48
77823;BME280;67013;49.730;17.292;2024-01-11T11:17:41;99274.74;;;0.91;50.95
77823;BME280;67013;49.730;17.292;2024-01-11T11:20:12;99274.51;;;0.95;50.94
77823;BME280;67013;49.730;17.292;2024-01-11T11:22:47;99271.51;;;0.99;50.83
77823;BME280;67013;49.730;17.292;2024-01-11T11:25:25;99268.64;;;1.05;50.79
77823;BME280;67013;49.730;17.292;2024-01-11T11:27:56;99269.89;;;1.12;50.29
77823;BME280;67013;49.730;17.292;2024-01-11T11:30:25;99258.61;;;1.18;50.05
77823;BME280;67013;49.730;17.292;2024-01-11T11:32:56;99255.68;;;1.27;49.55
77823;BME280;67013;49.730;17.292;2024-01-11T11:35:26;99259.84;;;1.41;49.53
77823;BME280;67013;49.730;17.292;2024-01-11T11:37:56;99260.13;;;1.58;49.22
77823;BME280;67013;49.730;17.292;2024-01-11T11:40:34;99254.46;;;1.74;48.55
77823;BME280;67013;49.730;17.292;2024-01-11T11:43:08;99240.52;;;1.91;48.32
77823;BME280;67013;49.730;17.292;2024-01-11T11:45:38;99234.39;;;2.09;47.98
77823;BME280;67013;49.730;17.292;2024-01-11T11:48:48;99226.33;;;2.29;47.78
77823;BME280;67013;49.730;17.292;2024-01-11T11:51:19;99221.04;;;2.48;47.15
77823;BME280;67013;49.730;17.292;2024-01-11T11:53:50;99218.17;;;2.58;46.92
77823;BME280;67013;49.730;17.292;2024-01-11T11:56:21;99218.94;;;2.67;46.73
77823;BME280;67013;49.730;17.292;2024-01-11T11:58:51;99215.00;;;2.74;46.67
77823;BME280;67013;49.730;17.292;2024-01-11T12:01:22;99206.70;;;2.82;46.05
77823;BME280;67013;49.730;17.292;2024-01-11T12:03:53;99201.75;;;2.87;46.09
77823;BME280;67013;49.730;17.292;2024-01-11T12:06:23;99193.20;;;2.91;46.11
77823;BME280;67013;49.730;17.292;2024-01-11T12:08:55;99187.20;;;2.97;46.41
77823;BME280;67013;49.730;17.292;2024-01-11T12:11:25;99178.27;;;3.03;46.08
77823;BME280;67013;49.730;17.292;2024-01-11T12:13:55;99174.55;;;3.06;45.81
77823;BME280;67013;49.730;17.292;2024-01-11T12:16:25;99172.93;;;3.09;45.87
77823;BME280;67013;49.730;17.292;2024-01-11T12:18:55;99171.40;;;3.08;45.96
77823;BME280;67013;49.730;17.292;2024-01-11T12:21:24;99166.55;;;3.09;46.10
77823;BME280;67013;49.730;17.292;2024-01-11T12:23:56;99161.35;;;3.11;46.48
77823;BME280;67013;49.730;17.292;2024-01-11T12:26:25;99163.86;;;3.12;45.92
77823;BME280;67013;49.730;17.292;2024-01-11T12:28:54;99170.89;;;3.13;46.02
77823;BME280;67013;49.730;17.292;2024-01-11T12:31:24;99165.33;;;3.15;46.08
77823;BME280;67013;49.730;17.292;2024-01-11T12:33:53;99166.73;;;3.14;45.99
77823;BME280;67013;49.730;17.292;2024-01-11T12:36:24;99163.35;;;3.12;45.67
77823;BME280;67013;49.730;17.292;2024-01-11T12:38:55;99163.13;;;3.09;45.76
77823;BME280;67013;49.730;17.292;2024-01-11T12:41:24;99164.27;;;3.05;45.58
77823;BME280;67013;49.730;17.292;2024-01-11T12:43:54;99161.12;;;3.01;45.90
77823;BME280;67013;49.730;17.292;2024-01-11T12:46:23;99157.59;;;2.99;45.97
77823;BME280;67013;49.730;17.292;2024-01-11T12:48:53;99147.74;;;2.95;46.08
77823;BME280;67013;49.730;17.292;2024-01-11T12:51:23;99142.14;;;2.93;46.55
77823;BME280;67013;49.730;17.292;2024-01-11T12:53:52;99136.14;;;2.92;46.50
77823;BME280;67013;49.730;17.292;2024-01-11T12:56:23;99131.36;;;2.91;46.33
77823;BME280;67013;49.730;17.292;2024-01-11T12:59:07;99126.45;;;2.89;46.52
77823;BME280;67013;49.730;17.292;2024-01-11T13:01:37;99120.05;;;2.84;46.90
77823;BME280;67013;49.730;17.292;2024-01-11T13:04:09;99120.71;;;2.80;46.91
77823;BME280;67013;49.730;17.292;2024-01-11T13:06:37;99117.60;;;2.74;46.99
77823;BME280;67013;49.730;17.292;2024-01-11T13:09:07;99117.80;;;2.68;47.08